sensor_id;sensor_type;location;lat;lon;timestamp;pressure;altitude;pressure_sealevel;temperature;humidity
50859;BME280;36826;47.514;19.056;2022-08-03T00:01:52;100206.66;;;21.67;71.94
50859;BME280;36826;47.514;19.056;2022-08-03T00:04:17;100206.88;;;21.66;72.68
50859;BME280;36826;47.514;19.056;2022-08-03T00:06:43;100204.97;;;21.59;73.13
50859;BME280;36826;47.514;19.056;2022-08-03T00:09:08;100202.25;;;21.59;75.31
50859;BME280;36826;47.514;19.056;2022-08-03T00:11:34;100206.44;;;21.55;75.08
50859;BME280;36826;47.514;19.056;2022-08-03T00:14:01;100211.44;;;21.52;76.66
50859;BME280;36826;47.514;19.056;2022-08-03T00:16:26;100203.69;;;21.49;76.72
50859;BME280;36826;47.514;19.056;2022-08-03T00:18:51;100208.91;;;21.43;77.00
50859;BME280;36826;47.514;19.056;2022-08-03T00:21:17;100208.69;;;21.38;77.17
50859;BME280;36826;47.514;19.056;2022-08-03T00:23:42;100213.94;;;21.33;77.31
50859;BME280;36826;47.514;19.056;2022-08-03T00:26:08;100211.63;;;21.30;77.37
50859;BME280;36826;47.514;19.056;2022-08-03T00:28:34;100208.06;;;21.29;78.00
50859;BME280;36826;47.514;19.056;2022-08-03T00:30:59;100213.91;;;21.26;77.72
50859;BME280;36826;47.514;19.056;2022-08-03T00:33:24;100220.59;;;21.24;77.95
50859;BME280;36826;47.514;19.056;2022-08-03T00:35:50;100213.06;;;21.26;78.26
50859;BME280;36826;47.514;19.056;2022-08-03T00:38:17;100221.22;;;21.26;78.43
50859;BME280;36826;47.514;19.056;2022-08-03T00:40:42;100216.41;;;21.21;79.38
50859;BME280;36826;47.514;19.056;2022-08-03T00:43:08;100215.56;;;21.14;79.19
50859;BME280;36826;47.514;19.056;2022-08-03T00:45:37;100218.91;;;21.09;79.65
50859;BME280;36826;47.514;19.056;2022-08-03T00:48:05;100219.09;;;21.08;80.81
50859;BME280;36826;47.514;19.056;2022-08-03T00:50:34;100225.78;;;21.05;81.29
50859;BME280;36826;47.514;19.056;2022-08-03T00:53:01;100219.69;;;21.03;81.87
50859;BME280;36826;47.514;19.056;2022-08-03T00:55:27;100223.06;;;21.05;81.80
50859;BME280;36826;47.514;19.056;2022-08-03T00:57:54;100226.19;;;21.02;82.19
50859;BME280;36826;47.514;19.056;2022-08-03T01:00:23;100233.53;;;21.02;82.54
50859;BME280;36826;47.514;19.056;2022-08-03T01:02:49;100227.44;;;20.99;82.81
50859;BME280;36826;47.514;19.056;2022-08-03T01:05:16;100231.59;;;20.95;82.98
50859;BME280;36826;47.514;19.056;2022-08-03T01:08:07;100231.19;;;20.92;83.57
50859;BME280;36826;47.514;19.056;2022-08-03T01:18:44;100236.38;;;20.87;86.43
50859;BME280;36826;47.514;19.056;2022-08-03T01:21:13;100226.97;;;20.82;86.95
50859;BME280;36826;47.514;19.056;2022-08-03T01:24:04;100236.56;;;20.78;87.56
50859;BME280;36826;47.514;19.056;2022-08-03T01:26:37;100234.50;;;20.80;89.46
50859;BME280;36826;47.514;19.056;2022-08-03T01:32:01;100231.34;;;20.77;89.48
50859;BME280;36826;47.514;19.056;2022-08-03T01:34:30;100233.19;;;20.76;90.69
50859;BME280;36826;47.514;19.056;2022-08-03T01:36:58;100245.78;;;20.77;90.15
50859;BME280;36826;47.514;19.056;2022-08-03T01:39:27;100240.31;;;20.77;90.01
50859;BME280;36826;47.514;19.056;2022-08-03T01:41:58;100233.84;;;20.78;90.47
50859;BME280;36826;47.514;19.056;2022-08-03T01:44:28;100237.38;;;20.79;90.28
50859;BME280;36826;47.514;19.056;2022-08-03T01:46:58;100241.72;;;20.73;90.48
50859;BME280;36826;47.514;19.056;2022-08-03T01:49:30;100233.34;;;20.68;90.73
50859;BME280;36826;47.514;19.056;2022-08-03T01:51:58;100227.00;;;20.61;90.92
50859;BME280;36826;47.514;19.056;2022-08-03T01:54:26;100233.91;;;20.57;91.60
50859;BME280;36826;47.514;19.056;2022-08-03T01:56:55;100222.78;;;20.51;92.36
50859;BME280;36826;47.514;19.056;2022-08-03T01:59:22;100228.63;;;20.48;92.66
50859;BME280;36826;47.514;19.056;2022-08-03T02:01:49;100231.75;;;20.45;93.63
50859;BME280;36826;47.514;19.056;2022-08-03T02:04:17;100229.44;;;20.42;94.01
50859;BME280;36826;47.514;19.056;2022-08-03T02:06:45;100226.06;;;20.40;94.71
50859;BME280;36826;47.514;19.056;2022-08-03T02:09:12;100226.06;;;20.40;94.31
50859;BME280;36826;47.514;19.056;2022-08-03T02:11:39;100228.13;;;20.38;94.43
50859;BME280;36826;47.514;19.056;2022-08-03T02:14:07;100223.09;;;20.35;95.07
50859;BME280;36826;47.514;19.056;2022-08-03T02:16:33;100228.97;;;20.32;95.76
50859;BME280;36826;47.514;19.056;2022-08-03T02:19:03;100226.19;;;20.25;96.12
50859;BME280;36826;47.514;19.056;2022-08-03T02:21:32;100220.28;;;20.21;96.57
50859;BME280;36826;47.514;19.056;2022-08-03T02:23:58;100227.63;;;20.21;96.79
50859;BME280;36826;47.514;19.056;2022-08-03T02:26:28;100222.56;;;20.18;97.74
50859;BME280;36826;47.514;19.056;2022-08-03T02:28:55;100224.84;;;20.14;98.01
50859;BME280;36826;47.514;19.056;2022-08-03T02:31:26;100228.41;;;20.15;98.08
50859;BME280;36826;47.514;19.056;2022-08-03T02:33:56;100223.44;;;20.18;98.85
50859;BME280;36826;47.514;19.056;2022-08-03T02:36:25;100231.53;;;20.12;99.05
50859;BME280;36826;47.514;19.056;2022-08-03T02:38:55;100232.94;;;20.07;100.00
50859;BME280;36826;47.514;19.056;2022-08-03T02:41:29;100229.78;;;20.04;100.00
50859;BME280;36826;47.514;19.056;2022-08-03T02:43:59;100223.06;;;20.00;100.00
50859;BME280;36826;47.514;19.056;2022-08-03T02:46:30;100228.50;;;20.00;100.00
50859;BME280;36826;47.514;19.056;2022-08-03T02:48:58;100231.59;;;19.97;100.00
50859;BME280;36826;47.514;19.056;2022-08-03T02:51:27;100233.22;;;19.91;100.00
50859;BME280;36826;47.514;19.056;2022-08-03T02:53:55;100226.53;;;19.87;100.00
50859;BME280;36826;47.514;19.056;2022-08-03T02:56:23;100238.06;;;19.96;100.00
50859;BME280;36826;47.514;19.056;2022-08-03T02:58:50;100230.34;;;19.92;100.00
50859;BME280;36826;47.514;19.056;2022-08-03T03:01:24;100232.63;;;19.96;100.00
50859;BME280;36826;47.514;19.056;2022-08-03T03:03:52;100238.06;;;19.96;100.00
50859;BME280;36826;47.514;19.056;2022-08-03T03:06:19;100238.88;;;19.89;100.00
50859;BME280;36826;47.514;19.056;2022-08-03T03:08:46;100230.25;;;19.86;100.00
50859;BME280;36826;47.514;19.056;2022-08-03T03:11:13;100235.03;;;19.84;100.00
50859;BME280;36826;47.514;19.056;2022-08-03T03:13:41;100231.47;;;19.83;100.00
50859;BME280;36826;47.514;19.056;2022-08-03T03:16:07;100233.16;;;19.84;100.00
50859;BME280;36826;47.514;19.056;2022-08-03T03:18:35;100240.66;;;19.82;100.00
50859;BME280;36826;47.514;19.056;2022-08-03T03:21:03;100237.31;;;19.80;100.00
50859;BME280;36826;47.514;19.056;2022-08-03T03:23:30;100239.38;;;19.78;100.00
50859;BME280;36826;47.514;19.056;2022-08-03T03:25:56;100240.19;;;19.78;100.00
50859;BME280;36826;47.514;19.056;2022-08-03T03:28:23;100236.66;;;19.78;100.00
50859;BME280;36826;47.514;19.056;2022-08-03T03:30:49;100238.34;;;19.79;100.00
50859;BME280;36826;47.514;19.056;2022-08-03T03:33:14;100235.22;;;19.82;100.00
50859;BME280;36826;47.514;19.056;2022-08-03T03:35:41;100231.09;;;19.86;100.00
50859;BME280;36826;47.514;19.056;2022-08-03T03:38:08;100241.59;;;19.89;100.00
50859;BME280;36826;47.514;19.056;2022-08-03T03:40:35;100231.16;;;19.93;100.00
50859;BME280;36826;47.514;19.056;2022-08-03T03:43:01;100234.16;;;19.98;100.00
50859;BME280;36826;47.514;19.056;2022-08-03T03:45:26;100234.19;;;20.05;100.00
50859;BME280;36826;47.514;19.056;2022-08-03T03:47:55;100239.41;;;20.35;100.00
50859;BME280;36826;47.514;19.056;2022-08-03T03:50:21;100243.72;;;20.86;96.94
50859;BME280;36826;47.514;19.056;2022-08-03T03:52:47;100246.44;;;21.48;91.29
50859;BME280;36826;47.514;19.056;2022-08-03T03:55:17;100252.63;;;22.04;85.44
50859;BME280;36826;47.514;19.056;2022-08-03T03:57:43;100251.06;;;22.68;79.94
50859;BME280;36826;47.514;19.056;2022-08-03T04:00:09;100248.13;;;23.29;76.47
50859;BME280;36826;47.514;19.056;2022-08-03T04:02:35;100250.75;;;23.49;72.84
50859;BME280;36826;47.514;19.056;2022-08-03T04:05:00;100248.94;;;24.44;69.69
50859;BME280;36826;47.514;19.056;2022-08-03T04:08:06;100249.03;;;25.61;63.85
50859;BME280;36826;47.514;19.056;2022-08-03T04:11:20;100262.59;;;26.70;58.04
50859;BME280;36826;47.514;19.056;2022-08-03T04:13:50;100262.50;;;27.75;54.54
50859;BME280;36826;47.514;19.056;2022-08-03T04:16:20;100262.53;;;28.26;51.48
50859;BME280;36826;47.514;19.056;2022-08-03T04:18:55;100264.34;;;28.99;49.16
50859;BME280;36826;47.514;19.056;2022-08-03T04:21:23;100265.50;;;29.48;47.93
50859;BME280;36826;47.514;19.056;2022-08-03T04:23:52;100268.59;;;29.84;45.82
50859;BME280;36826;47.514;19.056;2022-08-03T04:26:20;100276.19;;;30.37;44.04
50859;BME280;36826;47.514;19.056;2022-08-03T04:28:47;100261.63;;;31.00;42.84
50859;BME280;36826;47.514;19.056;2022-08-03T04:31:16;100273.38;;;31.28;41.88
50859;BME280;36826;47.514;19.056;2022-08-03T04:33:43;100274.69;;;30.56;42.94
50859;BME280;36826;47.514;19.056;2022-08-03T04:36:13;100271.00;;;30.88;42.12
50859;BME280;36826;47.514;19.056;2022-08-03T04:38:54;100275.38;;;29.71;43.99
50859;BME280;36826;47.514;19.056;2022-08-03T04:41:24;100280.25;;;29.91;44.06
50859;BME280;36826;47.514;19.056;2022-08-03T04:43:53;100278.31;;;29.59;44.39
50859;BME280;36826;47.514;19.056;2022-08-03T04:46:21;100283.06;;;30.72;42.73
50859;BME280;36826;47.514;19.056;2022-08-03T04:48:48;100276.25;;;32.21;39.54
50859;BME280;36826;47.514;19.056;2022-08-03T04:51:14;100288.38;;;32.71;38.21
50859;BME280;36826;47.514;19.056;2022-08-03T04:53:42;100289.78;;;33.29;37.47
50859;BME280;36826;47.514;19.056;2022-08-03T04:56:08;100291.09;;;33.92;36.56
50859;BME280;36826;47.514;19.056;2022-08-03T04:58:33;100290.63;;;34.44;35.57
50859;BME280;36826;47.514;19.056;2022-08-03T05:00:59;100296.06;;;34.84;34.99
50859;BME280;36826;47.514;19.056;2022-08-03T05:03:24;100302.91;;;35.16;34.10
50859;BME280;36826;47.514;19.056;2022-08-03T05:05:54;100299.69;;;35.28;33.69
50859;BME280;36826;47.514;19.056;2022-08-03T05:08:19;100303.78;;;35.55;32.98
50859;BME280;36826;47.514;19.056;2022-08-03T05:10:45;100304.03;;;34.91;33.55
50859;BME280;36826;47.514;19.056;2022-08-03T05:13:11;100316.31;;;35.90;32.96
50859;BME280;36826;47.514;19.056;2022-08-03T05:15:38;100322.63;;;36.62;31.41
50859;BME280;36826;47.514;19.056;2022-08-03T05:18:04;100317.41;;;37.03;31.24
50859;BME280;36826;47.514;19.056;2022-08-03T05:20:29;100320.78;;;37.41;30.64
50859;BME280;36826;47.514;19.056;2022-08-03T05:22:55;100314.09;;;38.11;29.42
50859;BME280;36826;47.514;19.056;2022-08-03T05:25:21;100321.22;;;38.17;29.66
50859;BME280;36826;47.514;19.056;2022-08-03T05:27:46;100314.44;;;38.09;29.53
50859;BME280;36826;47.514;19.056;2022-08-03T05:30:12;100319.81;;;38.28;29.62
50859;BME280;36826;47.514;19.056;2022-08-03T05:32:37;100327.81;;;38.75;29.10
50859;BME280;36826;47.514;19.056;2022-08-03T05:35:03;100327.09;;;39.19;28.59
50859;BME280;36826;47.514;19.056;2022-08-03T05:37:29;100322.50;;;39.05;28.42
50859;BME280;36826;47.514;19.056;2022-08-03T05:39:54;100324.66;;;39.17;28.90
50859;BME280;36826;47.514;19.056;2022-08-03T05:42:20;100332.81;;;39.63;28.16
50859;BME280;36826;47.514;19.056;2022-08-03T05:44:45;100327.59;;;39.03;28.48
50859;BME280;36826;47.514;19.056;2022-08-03T05:47:11;100324.66;;;38.36;28.65
50859;BME280;36826;47.514;19.056;2022-08-03T05:49:39;100326.94;;;38.66;29.29
50859;BME280;36826;47.514;19.056;2022-08-03T05:52:04;100331.03;;;38.60;29.61
50859;BME280;36826;47.514;19.056;2022-08-03T05:54:30;100326.44;;;39.04;28.80
50859;BME280;36826;47.514;19.056;2022-08-03T05:56:56;100337.13;;;39.95;27.37
50859;BME280;36826;47.514;19.056;2022-08-03T05:59:21;100333.81;;;40.67;26.91
50859;BME280;36826;47.514;19.056;2022-08-03T06:01:47;100336.31;;;41.29;25.90
50859;BME280;36826;47.514;19.056;2022-08-03T06:04:12;100347.69;;;41.11;25.47
50859;BME280;36826;47.514;19.056;2022-08-03T06:06:37;100342.84;;;41.84;25.64
50859;BME280;36826;47.514;19.056;2022-08-03T06:09:03;100353.84;;;41.98;25.07
50859;BME280;36826;47.514;19.056;2022-08-03T06:11:28;100346.75;;;41.92;25.20
50859;BME280;36826;47.514;19.056;2022-08-03T06:13:54;100341.56;;;42.36;24.21
50859;BME280;36826;47.514;19.056;2022-08-03T06:16:19;100359.72;;;42.05;24.67
50859;BME280;36826;47.514;19.056;2022-08-03T06:18:44;100363.31;;;42.27;24.07
50859;BME280;36826;47.514;19.056;2022-08-03T06:21:10;100355.56;;;42.70;24.25
50859;BME280;36826;47.514;19.056;2022-08-03T06:23:35;100350.25;;;42.68;23.90
50859;BME280;36826;47.514;19.056;2022-08-03T06:26:01;100348.50;;;42.17;24.16
50859;BME280;36826;47.514;19.056;2022-08-03T06:28:27;100350.50;;;41.02;25.14
50859;BME280;36826;47.514;19.056;2022-08-03T06:30:52;100345.38;;;38.67;27.41
50859;BME280;36826;47.514;19.056;2022-08-03T06:33:18;100352.31;;;40.68;25.54
50859;BME280;36826;47.514;19.056;2022-08-03T06:35:44;100357.75;;;41.84;24.75
50859;BME280;36826;47.514;19.056;2022-08-03T06:38:09;100353.72;;;42.99;22.91
50859;BME280;36826;47.514;19.056;2022-08-03T06:40:35;100354.16;;;43.26;22.83
50859;BME280;36826;47.514;19.056;2022-08-03T06:43:05;100355.31;;;43.90;22.03
50859;BME280;36826;47.514;19.056;2022-08-03T06:45:31;100349.03;;;43.97;21.83
50859;BME280;36826;47.514;19.056;2022-08-03T06:48:05;100356.38;;;43.86;21.72
50859;BME280;36826;47.514;19.056;2022-08-03T06:50:32;100361.19;;;44.42;21.38
50859;BME280;36826;47.514;19.056;2022-08-03T06:52:58;100350.75;;;43.86;21.77
50859;BME280;36826;47.514;19.056;2022-08-03T06:55:23;100361.28;;;44.78;21.21
50859;BME280;36826;47.514;19.056;2022-08-03T06:57:49;100365.94;;;44.70;20.33
50859;BME280;36826;47.514;19.056;2022-08-03T07:00:14;100356.59;;;45.17;20.79
50859;BME280;36826;47.514;19.056;2022-08-03T07:02:40;100368.66;;;44.50;20.92
50859;BME280;36826;47.514;19.056;2022-08-03T07:05:07;100366.84;;;44.42;21.27
50859;BME280;36826;47.514;19.056;2022-08-03T07:07:33;100361.28;;;45.45;20.26
50859;BME280;36826;47.514;19.056;2022-08-03T07:09:58;100354.59;;;45.34;20.44
50859;BME280;36826;47.514;19.056;2022-08-03T07:12:25;100356.53;;;45.14;20.53
50859;BME280;36826;47.514;19.056;2022-08-03T07:14:51;100356.75;;;46.00;19.58
50859;BME280;36826;47.514;19.056;2022-08-03T07:17:16;100361.13;;;46.83;18.87
50859;BME280;36826;47.514;19.056;2022-08-03T07:19:41;100364.31;;;45.72;19.40
50859;BME280;36826;47.514;19.056;2022-08-03T07:22:07;100360.44;;;46.00;18.78
50859;BME280;36826;47.514;19.056;2022-08-03T07:24:33;100360.97;;;45.31;19.48
50859;BME280;36826;47.514;19.056;2022-08-03T07:26:58;100360.09;;;43.61;21.50
50859;BME280;36826;47.514;19.056;2022-08-03T07:29:24;100356.75;;;45.41;20.57
50859;BME280;36826;47.514;19.056;2022-08-03T07:31:49;100363.97;;;46.83;18.67
50859;BME280;36826;47.514;19.056;2022-08-03T07:34:15;100358.81;;;46.65;18.59
50859;BME280;36826;47.514;19.056;2022-08-03T07:36:40;100361.53;;;45.76;19.22
50859;BME280;36826;47.514;19.056;2022-08-03T07:39:05;100359.50;;;46.16;19.21
50859;BME280;36826;47.514;19.056;2022-08-03T07:41:32;100349.50;;;43.71;21.21
50859;BME280;36826;47.514;19.056;2022-08-03T07:43:57;100359.00;;;43.00;21.77
50859;BME280;36826;47.514;19.056;2022-08-03T07:46:23;100360.78;;;42.46;22.10
50859;BME280;36826;47.514;19.056;2022-08-03T07:48:48;100354.47;;;43.49;21.55
50859;BME280;36826;47.514;19.056;2022-08-03T07:51:13;100350.53;;;41.75;22.31
50859;BME280;36826;47.514;19.056;2022-08-03T07:53:39;100350.25;;;42.68;22.03
50859;BME280;36826;47.514;19.056;2022-08-03T07:56:04;100350.06;;;44.81;20.08
50859;BME280;36826;47.514;19.056;2022-08-03T07:58:30;100351.94;;;45.61;19.26
50859;BME280;36826;47.514;19.056;2022-08-03T08:00:55;100352.66;;;45.97;18.79
50859;BME280;36826;47.514;19.056;2022-08-03T08:03:21;100351.41;;;45.55;19.37
50859;BME280;36826;47.514;19.056;2022-08-03T08:05:46;100356.06;;;42.97;21.44
50859;BME280;36826;47.514;19.056;2022-08-03T08:08:12;100348.94;;;44.38;20.82
50859;BME280;36826;47.514;19.056;2022-08-03T08:10:37;100355.34;;;45.15;19.55
50859;BME280;36826;47.514;19.056;2022-08-03T08:13:03;100348.31;;;44.28;20.08
50859;BME280;36826;47.514;19.056;2022-08-03T08:15:29;100344.75;;;45.28;19.03
50859;BME280;36826;47.514;19.056;2022-08-03T08:17:57;100342.81;;;44.04;20.20
50859;BME280;36826;47.514;19.056;2022-08-03T08:20:29;100344.34;;;44.78;19.57
50859;BME280;36826;47.514;19.056;2022-08-03T08:22:59;100347.50;;;45.08;19.39
50859;BME280;36826;47.514;19.056;2022-08-03T08:25:25;100350.94;;;43.64;21.14
50859;BME280;36826;47.514;19.056;2022-08-03T08:27:52;100340.28;;;45.27;19.83
50859;BME280;36826;47.514;19.056;2022-08-03T08:30:19;100338.53;;;46.63;18.31
50859;BME280;36826;47.514;19.056;2022-08-03T08:32:48;100345.69;;;47.95;17.25
50859;BME280;36826;47.514;19.056;2022-08-03T08:35:14;100347.53;;;48.59;16.62
50859;BME280;36826;47.514;19.056;2022-08-03T08:37:40;100343.16;;;48.28;16.82
50859;BME280;36826;47.514;19.056;2022-08-03T08:40:07;100346.44;;;47.00;17.26
50859;BME280;36826;47.514;19.056;2022-08-03T08:42:36;100345.41;;;45.76;18.50
50859;BME280;36826;47.514;19.056;2022-08-03T08:45:03;100340.56;;;45.22;19.59
50859;BME280;36826;47.514;19.056;2022-08-03T08:47:36;100338.63;;;45.81;18.70
50859;BME280;36826;47.514;19.056;2022-08-03T08:50:02;100344.16;;;44.54;19.32
50859;BME280;36826;47.514;19.056;2022-08-03T08:52:29;100336.75;;;42.15;21.70
50859;BME280;36826;47.514;19.056;2022-08-03T08:54:57;100338.41;;;42.75;21.34
50859;BME280;36826;47.514;19.056;2022-08-03T08:57:27;100343.34;;;41.65;22.51
50859;BME280;36826;47.514;19.056;2022-08-03T08:59:54;100333.59;;;41.83;22.18
50859;BME280;36826;47.514;19.056;2022-08-03T09:02:22;100339.03;;;43.18;20.85
50859;BME280;36826;47.514;19.056;2022-08-03T09:04:48;100335.75;;;43.97;20.02
50859;BME280;36826;47.514;19.056;2022-08-03T09:07:13;100328.50;;;43.56;20.63
50859;BME280;36826;47.514;19.056;2022-08-03T09:09:39;100336.25;;;44.44;19.29
50859;BME280;36826;47.514;19.056;2022-08-03T09:12:08;100329.81;;;45.11;19.07
50859;BME280;36826;47.514;19.056;2022-08-03T09:14:33;100337.84;;;45.45;18.51
50859;BME280;36826;47.514;19.056;2022-08-03T09:17:01;100327.28;;;43.97;19.70
50859;BME280;36826;47.514;19.056;2022-08-03T09:19:28;100324.69;;;41.81;21.52
50859;BME280;36826;47.514;19.056;2022-08-03T09:22:20;100331.88;;;42.25;21.64
50859;BME280;36826;47.514;19.056;2022-08-03T09:25:03;100331.84;;;44.31;19.81
50859;BME280;36826;47.514;19.056;2022-08-03T09:27:44;100330.13;;;45.61;18.77
50859;BME280;36826;47.514;19.056;2022-08-03T09:30:17;100323.50;;;46.82;17.53
50859;BME280;36826;47.514;19.056;2022-08-03T09:32:42;100318.28;;;45.95;18.52
50859;BME280;36826;47.514;19.056;2022-08-03T09:35:12;100322.75;;;45.96;17.79
50859;BME280;36826;47.514;19.056;2022-08-03T09:37:38;100316.19;;;46.58;17.62
50859;BME280;36826;47.514;19.056;2022-08-03T09:40:05;100311.34;;;45.92;18.44
50859;BME280;36826;47.514;19.056;2022-08-03T09:42:31;100309.72;;;45.91;18.32
50859;BME280;36826;47.514;19.056;2022-08-03T09:44:59;100313.09;;;46.90;17.58
50859;BME280;36826;47.514;19.056;2022-08-03T09:47:29;100309.34;;;44.34;19.29
50859;BME280;36826;47.514;19.056;2022-08-03T09:50:06;100298.56;;;42.85;20.93
50859;BME280;36826;47.514;19.056;2022-08-03T09:52:39;100307.56;;;43.69;20.09
50859;BME280;36826;47.514;19.056;2022-08-03T09:55:10;100307.88;;;44.88;19.58
50859;BME280;36826;47.514;19.056;2022-08-03T09:57:36;100301.13;;;44.13;19.90
50859;BME280;36826;47.514;19.056;2022-08-03T10:00:09;100303.94;;;45.09;19.24
50859;BME280;36826;47.514;19.056;2022-08-03T10:02:37;100294.63;;;45.25;18.48
50859;BME280;36826;47.514;19.056;2022-08-03T10:05:04;100296.06;;;44.67;19.27
50859;BME280;36826;47.514;19.056;2022-08-03T10:07:41;100295.50;;;40.71;22.15
50859;BME280;36826;47.514;19.056;2022-08-03T10:10:06;100293.69;;;41.26;21.81
50859;BME280;36826;47.514;19.056;2022-08-03T10:12:32;100291.13;;;42.43;21.01
50859;BME280;36826;47.514;19.056;2022-08-03T10:14:58;100285.19;;;42.95;20.58
50859;BME280;36826;47.514;19.056;2022-08-03T10:17:23;100280.34;;;40.55;22.45
50859;BME280;36826;47.514;19.056;2022-08-03T10:19:49;100278.78;;;41.35;22.24
50859;BME280;36826;47.514;19.056;2022-08-03T10:22:26;100289.34;;;40.39;22.26
50859;BME280;36826;47.514;19.056;2022-08-03T10:25:02;100283.53;;;41.13;21.19
50859;BME280;36826;47.514;19.056;2022-08-03T10:27:38;100285.59;;;40.09;21.75
50859;BME280;36826;47.514;19.056;2022-08-03T10:30:10;100289.41;;;38.67;23.55
50859;BME280;36826;47.514;19.056;2022-08-03T10:32:40;100263.84;;;38.19;24.24
50859;BME280;36826;47.514;19.056;2022-08-03T10:35:17;100268.38;;;38.06;23.95
50859;BME280;36826;47.514;19.056;2022-08-03T10:40:14;100260.81;;;37.61;25.05
50859;BME280;36826;47.514;19.056;2022-08-03T10:42:42;100268.72;;;37.09;25.57
50859;BME280;36826;47.514;19.056;2022-08-03T10:45:14;100264.03;;;35.30;27.83
50859;BME280;36826;47.514;19.056;2022-08-03T10:47:42;100251.47;;;34.11;29.48
50859;BME280;36826;47.514;19.056;2022-08-03T10:50:09;100248.59;;;34.75;28.95
50859;BME280;36826;47.514;19.056;2022-08-03T10:52:35;100260.25;;;35.59;28.29
50859;BME280;36826;47.514;19.056;2022-08-03T10:55:38;100242.81;;;36.05;27.54
50859;BME280;36826;47.514;19.056;2022-08-03T10:58:53;100244.81;;;35.67;27.45
50859;BME280;36826;47.514;19.056;2022-08-03T11:01:48;100235.28;;;34.91;28.44
50859;BME280;36826;47.514;19.056;2022-08-03T11:04:16;100236.75;;;34.64;28.44
50859;BME280;36826;47.514;19.056;2022-08-03T11:06:42;100220.34;;;34.38;29.25
50859;BME280;36826;47.514;19.056;2022-08-03T11:11:34;100231.81;;;35.05;28.09
50859;BME280;36826;47.514;19.056;2022-08-03T11:14:18;100237.97;;;35.21;27.48
50859;BME280;36826;47.514;19.056;2022-08-03T11:16:49;100229.34;;;35.22;27.41
50859;BME280;36826;47.514;19.056;2022-08-03T11:19:17;100228.66;;;35.30;27.71
50859;BME280;36826;47.514;19.056;2022-08-03T11:35:14;100211.44;;;34.12;29.41
50859;BME280;36826;47.514;19.056;2022-08-03T11:40:46;100202.22;;;33.87;29.82
50859;BME280;36826;47.514;19.056;2022-08-03T11:45:57;100210.44;;;34.27;29.14
50859;BME280;36826;47.514;19.056;2022-08-03T11:48:26;100207.25;;;34.15;28.89
50859;BME280;36826;47.514;19.056;2022-08-03T11:50:52;100208.31;;;34.19;28.63
50859;BME280;36826;47.514;19.056;2022-08-03T11:53:18;100206.28;;;34.00;28.46
50859;BME280;36826;47.514;19.056;2022-08-03T11:55:45;100207.81;;;33.82;28.82
50859;BME280;36826;47.514;19.056;2022-08-03T11:58:15;100200.13;;;33.39;30.13
50859;BME280;36826;47.514;19.056;2022-08-03T12:00:41;100205.09;;;32.97;30.28
50859;BME280;36826;47.514;19.056;2022-08-03T12:03:14;100201.09;;;32.48;31.10
50859;BME280;36826;47.514;19.056;2022-08-03T12:08:06;100194.81;;;32.06;32.25
50859;BME280;36826;47.514;19.056;2022-08-03T12:10:33;100195.38;;;31.72;32.56
50859;BME280;36826;47.514;19.056;2022-08-03T12:12:59;100191.75;;;32.08;31.87
50859;BME280;36826;47.514;19.056;2022-08-03T12:15:27;100184.41;;;32.58;31.37
50859;BME280;36826;47.514;19.056;2022-08-03T12:17:55;100181.88;;;33.23;30.63
50859;BME280;36826;47.514;19.056;2022-08-03T12:20:23;100176.72;;;33.80;29.59
50859;BME280;36826;47.514;19.056;2022-08-03T12:22:49;100186.38;;;34.17;28.79
50859;BME280;36826;47.514;19.056;2022-08-03T12:25:21;100174.72;;;33.56;29.14
50859;BME280;36826;47.514;19.056;2022-08-03T12:27:47;100174.88;;;33.35;29.07
50859;BME280;36826;47.514;19.056;2022-08-03T12:30:13;100167.69;;;33.34;29.63
50859;BME280;36826;47.514;19.056;2022-08-03T12:32:38;100167.34;;;32.96;29.78
50859;BME280;36826;47.514;19.056;2022-08-03T12:35:04;100174.59;;;32.87;29.97
50859;BME280;36826;47.514;19.056;2022-08-03T12:37:30;100170.00;;;33.12;29.51
50859;BME280;36826;47.514;19.056;2022-08-03T12:39:57;100163.81;;;33.25;29.16
50859;BME280;36826;47.514;19.056;2022-08-03T12:42:35;100162.72;;;32.76;29.73
50859;BME280;36826;47.514;19.056;2022-08-03T12:45:25;100150.75;;;32.86;29.67
50859;BME280;36826;47.514;19.056;2022-08-03T12:47:59;100153.69;;;33.05;29.53
50859;BME280;36826;47.514;19.056;2022-08-03T12:50:33;100155.63;;;33.10;29.15
50859;BME280;36826;47.514;19.056;2022-08-03T12:53:01;100161.91;;;33.20;29.04
50859;BME280;36826;47.514;19.056;2022-08-03T12:55:27;100153.31;;;33.57;28.36
50859;BME280;36826;47.514;19.056;2022-08-03T13:00:55;100158.03;;;34.15;27.69
50859;BME280;36826;47.514;19.056;2022-08-03T13:03:21;100146.22;;;34.29;27.10
50859;BME280;36826;47.514;19.056;2022-08-03T13:05:46;100146.97;;;34.34;27.30
50859;BME280;36826;47.514;19.056;2022-08-03T13:08:19;100144.72;;;34.36;26.92
50859;BME280;36826;47.514;19.056;2022-08-03T13:10:46;100144.63;;;34.22;27.22
50859;BME280;36826;47.514;19.056;2022-08-03T13:13:14;100140.91;;;34.32;26.96
50859;BME280;36826;47.514;19.056;2022-08-03T13:15:40;100134.72;;;34.40;26.77
50859;BME280;36826;47.514;19.056;2022-08-03T13:18:06;100128.78;;;34.23;26.99
50859;BME280;36826;47.514;19.056;2022-08-03T13:20:32;100130.16;;;34.25;27.11
50859;BME280;36826;47.514;19.056;2022-08-03T13:22:58;100128.00;;;34.17;27.54
50859;BME280;36826;47.514;19.056;2022-08-03T13:25:23;100125.44;;;34.02;27.59